Elkin, North Carolina
Current Conditions -  °F | °C
As of 7:15 PM on Sunday 23 Nov 2014 (Local Time) from KUKF Reporting Station
Light Rain Light Rain  
Wind Chill: 43°   Ceiling: 300
Heat Index: 43°   Visibility: 0.75mi
Dew Point: 43°   Wind: 0mph
Humidity: 100%   Direction: NA
Pressure: 29.87"   Gusts: NA
Location:  36.24°N, 80.85°W
Report Text: KUKF 240015Z AUTO 00000KT 3/4SM -RA OVC003 06/06 A2987 RMK AO2 LTG DSNT N P0006
Loading
Personal Weather Stations






























Interactive Weather Map New forecast layout! Learn more

10-Day Weather Forecast

Advertisements
Track Severe Weather on mobile